sensor_id;sensor_type;location;lat;lon;timestamp;temperature;humidity
24148;DHT22;12309;51.450;-2.624;2022-07-17T00:00:25;19.60;99.90
24148;DHT22;12309;51.450;-2.624;2022-07-17T00:02:52;19.50;99.90
24148;DHT22;12309;51.450;-2.624;2022-07-17T00:05:18;19.50;99.90
24148;DHT22;12309;51.450;-2.624;2022-07-17T00:07:44;19.50;99.90
24148;DHT22;12309;51.450;-2.624;2022-07-17T00:10:12;19.50;99.90
24148;DHT22;12309;51.450;-2.624;2022-07-17T00:12:38;19.50;99.90
24148;DHT22;12309;51.450;-2.624;2022-07-17T00:15:04;19.50;99.90
24148;DHT22;12309;51.450;-2.624;2022-07-17T00:17:30;19.40;99.90
24148;DHT22;12309;51.450;-2.624;2022-07-17T00:19:56;19.90;99.90
24148;DHT22;12309;51.450;-2.624;2022-07-17T00:22:22;19.30;99.90
24148;DHT22;12309;51.450;-2.624;2022-07-17T00:24:47;19.30;99.90
24148;DHT22;12309;51.450;-2.624;2022-07-17T00:27:13;19.30;99.90
24148;DHT22;12309;51.450;-2.624;2022-07-17T00:29:39;19.30;99.90
24148;DHT22;12309;51.450;-2.624;2022-07-17T00:32:05;19.20;99.90
24148;DHT22;12309;51.450;-2.624;2022-07-17T00:34:31;19.20;99.90
24148;DHT22;12309;51.450;-2.624;2022-07-17T00:36:57;19.10;99.90
24148;DHT22;12309;51.450;-2.624;2022-07-17T00:39:23;19.10;99.90
24148;DHT22;12309;51.450;-2.624;2022-07-17T00:41:49;19.10;99.90
24148;DHT22;12309;51.450;-2.624;2022-07-17T00:44:15;19.10;99.90
24148;DHT22;12309;51.450;-2.624;2022-07-17T00:46:41;19.00;99.90
24148;DHT22;12309;51.450;-2.624;2022-07-17T00:49:08;19.00;99.90
24148;DHT22;12309;51.450;-2.624;2022-07-17T00:51:34;19.00;99.90
24148;DHT22;12309;51.450;-2.624;2022-07-17T00:54:02;19.00;99.90
24148;DHT22;12309;51.450;-2.624;2022-07-17T00:56:28;18.90;99.90
24148;DHT22;12309;51.450;-2.624;2022-07-17T00:58:55;19.00;99.90
24148;DHT22;12309;51.450;-2.624;2022-07-17T01:01:21;18.90;99.90
24148;DHT22;12309;51.450;-2.624;2022-07-17T01:03:47;18.90;99.90
24148;DHT22;12309;51.450;-2.624;2022-07-17T01:06:13;18.90;99.90
24148;DHT22;12309;51.450;-2.624;2022-07-17T01:08:39;18.90;99.90
24148;DHT22;12309;51.450;-2.624;2022-07-17T01:11:07;18.90;99.90
24148;DHT22;12309;51.450;-2.624;2022-07-17T01:13:34;18.80;99.90
24148;DHT22;12309;51.450;-2.624;2022-07-17T01:16:00;18.80;99.90
24148;DHT22;12309;51.450;-2.624;2022-07-17T01:18:26;18.80;99.90
24148;DHT22;12309;51.450;-2.624;2022-07-17T01:20:52;18.80;99.90
24148;DHT22;12309;51.450;-2.624;2022-07-17T01:23:18;18.80;99.90
24148;DHT22;12309;51.450;-2.624;2022-07-17T01:25:45;18.80;99.90
24148;DHT22;12309;51.450;-2.624;2022-07-17T01:28:12;18.70;99.90
24148;DHT22;12309;51.450;-2.624;2022-07-17T01:30:46;18.70;99.90
24148;DHT22;12309;51.450;-2.624;2022-07-17T01:33:12;18.70;99.90
24148;DHT22;12309;51.450;-2.624;2022-07-17T01:35:38;18.60;99.90
24148;DHT22;12309;51.450;-2.624;2022-07-17T01:38:04;18.60;99.90
24148;DHT22;12309;51.450;-2.624;2022-07-17T01:40:30;18.50;99.90
24148;DHT22;12309;51.450;-2.624;2022-07-17T01:42:55;18.50;99.90
24148;DHT22;12309;51.450;-2.624;2022-07-17T01:45:21;18.50;99.90
24148;DHT22;12309;51.450;-2.624;2022-07-17T01:47:48;18.50;99.90
24148;DHT22;12309;51.450;-2.624;2022-07-17T01:50:14;18.50;99.90
24148;DHT22;12309;51.450;-2.624;2022-07-17T01:52:42;18.50;99.90
24148;DHT22;12309;51.450;-2.624;2022-07-17T01:55:10;18.40;99.90
24148;DHT22;12309;51.450;-2.624;2022-07-17T01:57:36;18.40;99.90
24148;DHT22;12309;51.450;-2.624;2022-07-17T02:00:11;18.40;99.90
24148;DHT22;12309;51.450;-2.624;2022-07-17T02:02:37;18.40;99.90
24148;DHT22;12309;51.450;-2.624;2022-07-17T02:05:03;18.40;99.90
24148;DHT22;12309;51.450;-2.624;2022-07-17T02:07:29;18.40;99.90
24148;DHT22;12309;51.450;-2.624;2022-07-17T02:09:56;18.40;99.90
24148;DHT22;12309;51.450;-2.624;2022-07-17T02:12:22;18.40;99.90
24148;DHT22;12309;51.450;-2.624;2022-07-17T02:14:48;18.40;99.90
24148;DHT22;12309;51.450;-2.624;2022-07-17T02:17:14;18.40;99.90
24148;DHT22;12309;51.450;-2.624;2022-07-17T02:19:40;18.40;99.90
24148;DHT22;12309;51.450;-2.624;2022-07-17T02:22:06;18.40;99.90
24148;DHT22;12309;51.450;-2.624;2022-07-17T02:24:31;18.40;99.90
24148;DHT22;12309;51.450;-2.624;2022-07-17T02:26:57;18.40;99.90
24148;DHT22;12309;51.450;-2.624;2022-07-17T02:29:23;18.40;99.90
24148;DHT22;12309;51.450;-2.624;2022-07-17T02:31:49;18.30;99.90
24148;DHT22;12309;51.450;-2.624;2022-07-17T02:34:15;18.20;99.90
24148;DHT22;12309;51.450;-2.624;2022-07-17T02:36:41;18.20;99.90
24148;DHT22;12309;51.450;-2.624;2022-07-17T02:39:07;18.20;99.90
24148;DHT22;12309;51.450;-2.624;2022-07-17T02:41:33;18.20;99.90
24148;DHT22;12309;51.450;-2.624;2022-07-17T02:43:58;18.10;99.90
24148;DHT22;12309;51.450;-2.624;2022-07-17T02:46:24;18.10;99.90
24148;DHT22;12309;51.450;-2.624;2022-07-17T02:48:50;18.00;99.90
24148;DHT22;12309;51.450;-2.624;2022-07-17T02:51:16;18.00;99.90
24148;DHT22;12309;51.450;-2.624;2022-07-17T02:53:42;18.00;99.90
24148;DHT22;12309;51.450;-2.624;2022-07-17T02:56:07;17.90;99.90
24148;DHT22;12309;51.450;-2.624;2022-07-17T02:58:33;17.90;99.90
24148;DHT22;12309;51.450;-2.624;2022-07-17T03:00:59;17.90;99.90
24148;DHT22;12309;51.450;-2.624;2022-07-17T03:03:25;17.90;99.90
24148;DHT22;12309;51.450;-2.624;2022-07-17T03:05:51;17.80;99.90
24148;DHT22;12309;51.450;-2.624;2022-07-17T03:08:17;17.80;99.90
24148;DHT22;12309;51.450;-2.624;2022-07-17T03:10:42;17.70;99.90
24148;DHT22;12309;51.450;-2.624;2022-07-17T03:13:08;17.70;99.90
24148;DHT22;12309;51.450;-2.624;2022-07-17T03:15:34;17.60;99.90
24148;DHT22;12309;51.450;-2.624;2022-07-17T03:18:00;17.60;99.90
24148;DHT22;12309;51.450;-2.624;2022-07-17T03:20:26;17.60;99.90
24148;DHT22;12309;51.450;-2.624;2022-07-17T03:22:51;17.50;99.90
24148;DHT22;12309;51.450;-2.624;2022-07-17T03:25:17;17.50;99.90
24148;DHT22;12309;51.450;-2.624;2022-07-17T03:27:43;17.50;99.90
24148;DHT22;12309;51.450;-2.624;2022-07-17T03:30:09;17.50;99.90
24148;DHT22;12309;51.450;-2.624;2022-07-17T03:32:35;17.50;99.90
24148;DHT22;12309;51.450;-2.624;2022-07-17T03:35:01;17.60;99.90
24148;DHT22;12309;51.450;-2.624;2022-07-17T03:37:30;17.50;99.90
24148;DHT22;12309;51.450;-2.624;2022-07-17T03:39:55;17.50;99.90
24148;DHT22;12309;51.450;-2.624;2022-07-17T03:42:21;17.50;99.90
24148;DHT22;12309;51.450;-2.624;2022-07-17T03:44:47;17.50;99.90
24148;DHT22;12309;51.450;-2.624;2022-07-17T03:47:13;17.50;99.90
24148;DHT22;12309;51.450;-2.624;2022-07-17T03:49:39;17.40;99.90
24148;DHT22;12309;51.450;-2.624;2022-07-17T03:52:05;17.40;99.90
24148;DHT22;12309;51.450;-2.624;2022-07-17T03:54:31;17.40;99.90
24148;DHT22;12309;51.450;-2.624;2022-07-17T03:56:56;17.40;99.90
24148;DHT22;12309;51.450;-2.624;2022-07-17T03:59:22;17.40;99.90
24148;DHT22;12309;51.450;-2.624;2022-07-17T04:01:48;17.40;99.90
24148;DHT22;12309;51.450;-2.624;2022-07-17T04:04:14;17.40;99.90
24148;DHT22;12309;51.450;-2.624;2022-07-17T04:06:40;17.40;99.90
24148;DHT22;12309;51.450;-2.624;2022-07-17T04:09:06;17.40;99.90
24148;DHT22;12309;51.450;-2.624;2022-07-17T04:11:32;17.50;99.90
24148;DHT22;12309;51.450;-2.624;2022-07-17T04:13:57;17.50;99.90
24148;DHT22;12309;51.450;-2.624;2022-07-17T04:16:23;17.50;99.90
24148;DHT22;12309;51.450;-2.624;2022-07-17T04:18:49;17.50;99.90
24148;DHT22;12309;51.450;-2.624;2022-07-17T04:21:15;17.50;99.90
24148;DHT22;12309;51.450;-2.624;2022-07-17T04:23:41;17.50;99.90
24148;DHT22;12309;51.450;-2.624;2022-07-17T04:26:07;17.50;99.90
24148;DHT22;12309;51.450;-2.624;2022-07-17T04:28:33;17.50;99.90
24148;DHT22;12309;51.450;-2.624;2022-07-17T04:31:00;17.60;99.90
24148;DHT22;12309;51.450;-2.624;2022-07-17T04:33:25;17.60;99.90
24148;DHT22;12309;51.450;-2.624;2022-07-17T04:35:52;17.60;99.90
24148;DHT22;12309;51.450;-2.624;2022-07-17T04:38:18;17.60;99.90
24148;DHT22;12309;51.450;-2.624;2022-07-17T04:40:44;17.60;99.90
24148;DHT22;12309;51.450;-2.624;2022-07-17T04:43:11;17.60;99.90
24148;DHT22;12309;51.450;-2.624;2022-07-17T04:45:37;17.60;99.90
24148;DHT22;12309;51.450;-2.624;2022-07-17T04:48:04;17.60;99.90
24148;DHT22;12309;51.450;-2.624;2022-07-17T04:50:30;17.60;99.90
24148;DHT22;12309;51.450;-2.624;2022-07-17T04:52:56;17.60;99.90
24148;DHT22;12309;51.450;-2.624;2022-07-17T04:55:23;17.70;99.90
24148;DHT22;12309;51.450;-2.624;2022-07-17T04:57:49;17.70;99.90
24148;DHT22;12309;51.450;-2.624;2022-07-17T05:00:15;17.70;99.90
24148;DHT22;12309;51.450;-2.624;2022-07-17T05:02:41;17.70;99.90
24148;DHT22;12309;51.450;-2.624;2022-07-17T05:05:07;17.80;99.90
24148;DHT22;12309;51.450;-2.624;2022-07-17T05:07:33;17.80;99.90
24148;DHT22;12309;51.450;-2.624;2022-07-17T05:09:59;17.80;99.90
24148;DHT22;12309;51.450;-2.624;2022-07-17T05:12:25;17.90;99.90
24148;DHT22;12309;51.450;-2.624;2022-07-17T05:14:51;17.90;99.90
24148;DHT22;12309;51.450;-2.624;2022-07-17T05:17:17;17.90;99.90
24148;DHT22;12309;51.450;-2.624;2022-07-17T05:19:43;17.90;99.90
24148;DHT22;12309;51.450;-2.624;2022-07-17T05:22:09;17.90;99.90
24148;DHT22;12309;51.450;-2.624;2022-07-17T05:24:34;18.00;99.90
24148;DHT22;12309;51.450;-2.624;2022-07-17T05:27:01;18.00;99.90
24148;DHT22;12309;51.450;-2.624;2022-07-17T05:29:27;18.00;99.90
24148;DHT22;12309;51.450;-2.624;2022-07-17T05:31:53;18.00;99.90
24148;DHT22;12309;51.450;-2.624;2022-07-17T05:34:18;18.00;99.90
24148;DHT22;12309;51.450;-2.624;2022-07-17T05:36:44;18.00;99.90
24148;DHT22;12309;51.450;-2.624;2022-07-17T05:39:11;18.00;99.90
24148;DHT22;12309;51.450;-2.624;2022-07-17T05:41:37;18.10;99.90
24148;DHT22;12309;51.450;-2.624;2022-07-17T05:44:04;18.20;99.90
24148;DHT22;12309;51.450;-2.624;2022-07-17T05:46:30;18.10;99.90
24148;DHT22;12309;51.450;-2.624;2022-07-17T05:48:56;18.10;99.90
24148;DHT22;12309;51.450;-2.624;2022-07-17T05:51:22;18.10;99.90
24148;DHT22;12309;51.450;-2.624;2022-07-17T05:53:47;18.10;99.90
24148;DHT22;12309;51.450;-2.624;2022-07-17T05:56:13;18.20;99.90
24148;DHT22;12309;51.450;-2.624;2022-07-17T05:58:39;18.30;99.90
24148;DHT22;12309;51.450;-2.624;2022-07-17T06:01:05;18.30;99.90
24148;DHT22;12309;51.450;-2.624;2022-07-17T06:03:31;18.40;99.90
24148;DHT22;12309;51.450;-2.624;2022-07-17T06:05:57;18.50;99.90
24148;DHT22;12309;51.450;-2.624;2022-07-17T06:08:22;18.40;99.90
24148;DHT22;12309;51.450;-2.624;2022-07-17T06:10:48;18.50;99.90
24148;DHT22;12309;51.450;-2.624;2022-07-17T06:13:14;18.50;99.90
24148;DHT22;12309;51.450;-2.624;2022-07-17T06:15:40;18.60;99.90
24148;DHT22;12309;51.450;-2.624;2022-07-17T06:18:06;18.70;99.90
24148;DHT22;12309;51.450;-2.624;2022-07-17T06:20:32;18.70;99.90
24148;DHT22;12309;51.450;-2.624;2022-07-17T06:22:58;18.70;99.90
24148;DHT22;12309;51.450;-2.624;2022-07-17T06:25:23;18.70;99.90
24148;DHT22;12309;51.450;-2.624;2022-07-17T06:27:49;19.10;99.90
24148;DHT22;12309;51.450;-2.624;2022-07-17T06:30:16;18.80;99.90
24148;DHT22;12309;51.450;-2.624;2022-07-17T06:32:42;18.80;99.90
24148;DHT22;12309;51.450;-2.624;2022-07-17T06:35:08;18.80;99.90
24148;DHT22;12309;51.450;-2.624;2022-07-17T06:37:35;18.90;99.90
24148;DHT22;12309;51.450;-2.624;2022-07-17T06:40:01;18.90;99.90
24148;DHT22;12309;51.450;-2.624;2022-07-17T06:42:27;19.00;99.90
24148;DHT22;12309;51.450;-2.624;2022-07-17T06:44:53;19.10;99.90
24148;DHT22;12309;51.450;-2.624;2022-07-17T06:47:19;19.10;99.90
24148;DHT22;12309;51.450;-2.624;2022-07-17T06:49:45;19.20;99.90
24148;DHT22;12309;51.450;-2.624;2022-07-17T06:52:10;19.20;99.90
24148;DHT22;12309;51.450;-2.624;2022-07-17T06:54:36;19.30;99.90
24148;DHT22;12309;51.450;-2.624;2022-07-17T06:57:02;19.40;99.90
24148;DHT22;12309;51.450;-2.624;2022-07-17T06:59:28;19.50;99.90
24148;DHT22;12309;51.450;-2.624;2022-07-17T07:01:54;19.60;99.90
24148;DHT22;12309;51.450;-2.624;2022-07-17T07:04:20;19.70;99.90
24148;DHT22;12309;51.450;-2.624;2022-07-17T07:06:46;19.80;99.90
24148;DHT22;12309;51.450;-2.624;2022-07-17T07:09:12;19.90;99.90
24148;DHT22;12309;51.450;-2.624;2022-07-17T07:11:38;20.00;99.90
24148;DHT22;12309;51.450;-2.624;2022-07-17T07:14:05;20.10;99.90
24148;DHT22;12309;51.450;-2.624;2022-07-17T07:16:31;20.00;99.90
24148;DHT22;12309;51.450;-2.624;2022-07-17T07:18:57;20.10;99.90
24148;DHT22;12309;51.450;-2.624;2022-07-17T07:21:23;20.20;99.90
24148;DHT22;12309;51.450;-2.624;2022-07-17T07:23:51;20.40;99.90
24148;DHT22;12309;51.450;-2.624;2022-07-17T07:26:17;20.50;99.90
24148;DHT22;12309;51.450;-2.624;2022-07-17T07:28:43;20.50;99.90
24148;DHT22;12309;51.450;-2.624;2022-07-17T07:31:09;20.60;99.90
24148;DHT22;12309;51.450;-2.624;2022-07-17T07:33:36;20.60;99.90
24148;DHT22;12309;51.450;-2.624;2022-07-17T07:36:02;20.70;99.90
24148;DHT22;12309;51.450;-2.624;2022-07-17T07:38:28;20.80;99.90
24148;DHT22;12309;51.450;-2.624;2022-07-17T07:40:54;20.80;99.90
24148;DHT22;12309;51.450;-2.624;2022-07-17T07:43:20;20.90;99.90
24148;DHT22;12309;51.450;-2.624;2022-07-17T07:45:46;21.10;99.90
24148;DHT22;12309;51.450;-2.624;2022-07-17T07:48:12;21.10;99.90
24148;DHT22;12309;51.450;-2.624;2022-07-17T07:50:38;21.20;99.90
24148;DHT22;12309;51.450;-2.624;2022-07-17T07:53:04;21.40;99.90
24148;DHT22;12309;51.450;-2.624;2022-07-17T07:55:30;21.50;99.90
24148;DHT22;12309;51.450;-2.624;2022-07-17T07:58:08;21.70;99.90
24148;DHT22;12309;51.450;-2.624;2022-07-17T08:00:35;21.70;99.90
24148;DHT22;12309;51.450;-2.624;2022-07-17T08:03:01;21.90;99.90
24148;DHT22;12309;51.450;-2.624;2022-07-17T08:05:27;22.00;99.90
24148;DHT22;12309;51.450;-2.624;2022-07-17T08:07:53;22.00;99.90
24148;DHT22;12309;51.450;-2.624;2022-07-17T08:10:19;22.10;99.90
24148;DHT22;12309;51.450;-2.624;2022-07-17T08:12:45;22.20;99.90
24148;DHT22;12309;51.450;-2.624;2022-07-17T08:15:11;22.30;99.90
24148;DHT22;12309;51.450;-2.624;2022-07-17T08:17:37;22.40;99.90
24148;DHT22;12309;51.450;-2.624;2022-07-17T08:20:03;22.60;99.90
24148;DHT22;12309;51.450;-2.624;2022-07-17T08:22:29;22.70;99.90
24148;DHT22;12309;51.450;-2.624;2022-07-17T08:24:55;22.80;99.90
24148;DHT22;12309;51.450;-2.624;2022-07-17T08:27:21;23.00;99.90
24148;DHT22;12309;51.450;-2.624;2022-07-17T08:29:48;23.10;99.90
24148;DHT22;12309;51.450;-2.624;2022-07-17T08:32:13;23.30;99.90
24148;DHT22;12309;51.450;-2.624;2022-07-17T08:34:39;23.60;99.90
24148;DHT22;12309;51.450;-2.624;2022-07-17T08:37:05;23.60;99.90
24148;DHT22;12309;51.450;-2.624;2022-07-17T08:39:31;23.60;99.90
24148;DHT22;12309;51.450;-2.624;2022-07-17T08:41:57;23.90;99.90
24148;DHT22;12309;51.450;-2.624;2022-07-17T08:44:23;24.30;99.90
24148;DHT22;12309;51.450;-2.624;2022-07-17T08:46:48;24.40;99.90
24148;DHT22;12309;51.450;-2.624;2022-07-17T08:49:15;24.60;99.90
24148;DHT22;12309;51.450;-2.624;2022-07-17T08:51:45;24.80;99.90
24148;DHT22;12309;51.450;-2.624;2022-07-17T08:54:12;24.60;99.90
24148;DHT22;12309;51.450;-2.624;2022-07-17T08:56:37;25.10;99.90
24148;DHT22;12309;51.450;-2.624;2022-07-17T08:59:04;25.90;99.90
24148;DHT22;12309;51.450;-2.624;2022-07-17T09:01:29;25.90;99.90
24148;DHT22;12309;51.450;-2.624;2022-07-17T09:03:57;26.00;99.90
24148;DHT22;12309;51.450;-2.624;2022-07-17T09:06:24;26.10;99.90
24148;DHT22;12309;51.450;-2.624;2022-07-17T09:09:11;26.30;99.90
24148;DHT22;12309;51.450;-2.624;2022-07-17T09:11:51;26.30;99.90
24148;DHT22;12309;51.450;-2.624;2022-07-17T09:14:19;26.30;99.90
24148;DHT22;12309;51.450;-2.624;2022-07-17T09:16:58;26.30;99.90
24148;DHT22;12309;51.450;-2.624;2022-07-17T09:19:32;26.20;99.90
24148;DHT22;12309;51.450;-2.624;2022-07-17T09:22:16;26.70;99.90
24148;DHT22;12309;51.450;-2.624;2022-07-17T09:24:53;27.10;99.90
24148;DHT22;12309;51.450;-2.624;2022-07-17T09:29:57;27.60;99.90
24148;DHT22;12309;51.450;-2.624;2022-07-17T09:32:26;27.30;99.90
24148;DHT22;12309;51.450;-2.624;2022-07-17T09:34:54;27.30;99.90
24148;DHT22;12309;51.450;-2.624;2022-07-17T09:37:24;27.50;99.90
24148;DHT22;12309;51.450;-2.624;2022-07-17T09:39:51;27.70;99.90
24148;DHT22;12309;51.450;-2.624;2022-07-17T09:42:26;27.90;99.90
24148;DHT22;12309;51.450;-2.624;2022-07-17T09:45:00;27.60;99.90
24148;DHT22;12309;51.450;-2.624;2022-07-17T09:47:28;27.70;99.90
24148;DHT22;12309;51.450;-2.624;2022-07-17T09:49:55;27.70;99.90
24148;DHT22;12309;51.450;-2.624;2022-07-17T09:52:24;27.80;99.90
24148;DHT22;12309;51.450;-2.624;2022-07-17T09:54:53;28.20;99.90
24148;DHT22;12309;51.450;-2.624;2022-07-17T09:57:24;27.90;99.90
24148;DHT22;12309;51.450;-2.624;2022-07-17T09:59:53;27.70;99.90
24148;DHT22;12309;51.450;-2.624;2022-07-17T10:02:21;28.30;99.90
24148;DHT22;12309;51.450;-2.624;2022-07-17T10:04:48;28.60;99.90
24148;DHT22;12309;51.450;-2.624;2022-07-17T10:07:14;28.50;99.90
24148;DHT22;12309;51.450;-2.624;2022-07-17T10:09:40;28.30;99.90
24148;DHT22;12309;51.450;-2.624;2022-07-17T10:12:09;27.90;99.90
24148;DHT22;12309;51.450;-2.624;2022-07-17T10:14:36;27.80;99.90
24148;DHT22;12309;51.450;-2.624;2022-07-17T10:17:12;28.20;99.90
24148;DHT22;12309;51.450;-2.624;2022-07-17T10:19:50;28.00;99.90
24148;DHT22;12309;51.450;-2.624;2022-07-17T10:22:16;27.50;99.90
24148;DHT22;12309;51.450;-2.624;2022-07-17T10:24:50;27.80;99.90
24148;DHT22;12309;51.450;-2.624;2022-07-17T10:27:27;27.70;99.90
24148;DHT22;12309;51.450;-2.624;2022-07-17T10:30:07;28.10;99.90
24148;DHT22;12309;51.450;-2.624;2022-07-17T10:32:34;28.30;99.90
24148;DHT22;12309;51.450;-2.624;2022-07-17T10:35:03;28.10;99.90
24148;DHT22;12309;51.450;-2.624;2022-07-17T10:40:22;28.40;99.90
24148;DHT22;12309;51.450;-2.624;2022-07-17T10:43:02;28.40;99.90
24148;DHT22;12309;51.450;-2.624;2022-07-17T10:45:35;28.80;99.90
24148;DHT22;12309;51.450;-2.624;2022-07-17T10:48:18;28.80;99.90
24148;DHT22;12309;51.450;-2.624;2022-07-17T10:50:52;28.20;99.90
24148;DHT22;12309;51.450;-2.624;2022-07-17T10:53:22;28.60;99.90
24148;DHT22;12309;51.450;-2.624;2022-07-17T10:56:07;28.60;99.90
24148;DHT22;12309;51.450;-2.624;2022-07-17T10:58:41;28.50;99.90
24148;DHT22;12309;51.450;-2.624;2022-07-17T11:01:12;29.00;99.90
24148;DHT22;12309;51.450;-2.624;2022-07-17T11:03:45;29.30;99.90
24148;DHT22;12309;51.450;-2.624;2022-07-17T11:06:17;29.80;99.90
24148;DHT22;12309;51.450;-2.624;2022-07-17T11:08:46;30.00;99.90
24148;DHT22;12309;51.450;-2.624;2022-07-17T11:11:12;30.50;99.90
24148;DHT22;12309;51.450;-2.624;2022-07-17T11:13:38;30.40;99.90
24148;DHT22;12309;51.450;-2.624;2022-07-17T11:16:04;30.50;99.90
24148;DHT22;12309;51.450;-2.624;2022-07-17T11:18:30;30.60;99.90
24148;DHT22;12309;51.450;-2.624;2022-07-17T11:20:59;30.40;99.90
24148;DHT22;12309;51.450;-2.624;2022-07-17T11:23:28;30.00;99.90
24148;DHT22;12309;51.450;-2.624;2022-07-17T11:26:05;30.10;99.90
24148;DHT22;12309;51.450;-2.624;2022-07-17T11:28:39;30.00;99.90
24148;DHT22;12309;51.450;-2.624;2022-07-17T11:31:18;29.80;99.90
24148;DHT22;12309;51.450;-2.624;2022-07-17T11:34:10;30.20;99.90
24148;DHT22;12309;51.450;-2.624;2022-07-17T11:36:38;30.20;99.90
24148;DHT22;12309;51.450;-2.624;2022-07-17T11:39:11;30.50;99.90
24148;DHT22;12309;51.450;-2.624;2022-07-17T11:41:40;30.70;99.90
24148;DHT22;12309;51.450;-2.624;2022-07-17T11:44:09;30.80;99.90
24148;DHT22;12309;51.450;-2.624;2022-07-17T11:46:36;30.70;99.90
24148;DHT22;12309;51.450;-2.624;2022-07-17T11:49:03;30.60;99.90
24148;DHT22;12309;51.450;-2.624;2022-07-17T11:51:41;31.10;99.90
24148;DHT22;12309;51.450;-2.624;2022-07-17T11:54:10;31.50;99.90
24148;DHT22;12309;51.450;-2.624;2022-07-17T11:56:36;30.90;99.90
24148;DHT22;12309;51.450;-2.624;2022-07-17T11:59:03;30.40;99.90
24148;DHT22;12309;51.450;-2.624;2022-07-17T12:01:41;30.50;99.90
24148;DHT22;12309;51.450;-2.624;2022-07-17T12:04:09;30.60;99.90
24148;DHT22;12309;51.450;-2.624;2022-07-17T12:06:35;31.60;99.90
24148;DHT22;12309;51.450;-2.624;2022-07-17T12:09:02;31.90;99.90
24148;DHT22;12309;51.450;-2.624;2022-07-17T12:11:28;32.20;99.90
24148;DHT22;12309;51.450;-2.624;2022-07-17T12:13:54;31.90;99.90
24148;DHT22;12309;51.450;-2.624;2022-07-17T12:16:26;31.70;99.90
24148;DHT22;12309;51.450;-2.624;2022-07-17T12:19:08;31.40;99.90
24148;DHT22;12309;51.450;-2.624;2022-07-17T12:26:49;31.90;99.90
24148;DHT22;12309;51.450;-2.624;2022-07-17T12:29:15;31.80;99.90
24148;DHT22;12309;51.450;-2.624;2022-07-17T12:31:41;32.20;99.90
24148;DHT22;12309;51.450;-2.624;2022-07-17T12:34:07;32.00;99.90
24148;DHT22;12309;51.450;-2.624;2022-07-17T12:36:33;32.50;99.90
24148;DHT22;12309;51.450;-2.624;2022-07-17T12:38:59;32.80;99.90
24148;DHT22;12309;51.450;-2.624;2022-07-17T12:41:25;32.40;99.90
24148;DHT22;12309;51.450;-2.624;2022-07-17T12:43:51;32.90;99.90
24148;DHT22;12309;51.450;-2.624;2022-07-17T12:46:16;32.20;99.90
24148;DHT22;12309;51.450;-2.624;2022-07-17T12:48:43;32.50;99.90
24148;DHT22;12309;51.450;-2.624;2022-07-17T12:51:10;32.50;99.90
24148;DHT22;12309;51.450;-2.624;2022-07-17T12:53:39;32.70;99.90
24148;DHT22;12309;51.450;-2.624;2022-07-17T12:56:07;33.00;99.90
24148;DHT22;12309;51.450;-2.624;2022-07-17T12:58:33;33.20;99.90
24148;DHT22;12309;51.450;-2.624;2022-07-17T13:01:00;32.80;99.90
24148;DHT22;12309;51.450;-2.624;2022-07-17T13:03:26;32.80;99.90
24148;DHT22;12309;51.450;-2.624;2022-07-17T13:05:52;33.30;99.90
24148;DHT22;12309;51.450;-2.624;2022-07-17T13:08:18;33.40;99.90
24148;DHT22;12309;51.450;-2.624;2022-07-17T13:10:44;32.80;99.90
24148;DHT22;12309;51.450;-2.624;2022-07-17T13:13:10;32.70;99.90
24148;DHT22;12309;51.450;-2.624;2022-07-17T13:15:35;33.00;99.90
24148;DHT22;12309;51.450;-2.624;2022-07-17T13:18:01;32.70;99.90
24148;DHT22;12309;51.450;-2.624;2022-07-17T13:20:28;33.00;99.90
24148;DHT22;12309;51.450;-2.624;2022-07-17T13:22:54;32.70;99.90
24148;DHT22;12309;51.450;-2.624;2022-07-17T13:25:20;33.50;99.90
24148;DHT22;12309;51.450;-2.624;2022-07-17T13:27:46;33.90;99.90
24148;DHT22;12309;51.450;-2.624;2022-07-17T13:30:12;34.60;99.90
24148;DHT22;12309;51.450;-2.624;2022-07-17T13:32:38;34.70;99.90
24148;DHT22;12309;51.450;-2.624;2022-07-17T13:35:05;33.90;99.90
24148;DHT22;12309;51.450;-2.624;2022-07-17T13:37:32;33.90;99.90
24148;DHT22;12309;51.450;-2.624;2022-07-17T13:39:57;34.60;99.90
24148;DHT22;12309;51.450;-2.624;2022-07-17T13:42:23;34.40;99.90
24148;DHT22;12309;51.450;-2.624;2022-07-17T13:44:49;34.90;99.90
24148;DHT22;12309;51.450;-2.624;2022-07-17T13:47:15;35.10;99.90
24148;DHT22;12309;51.450;-2.624;2022-07-17T13:49:41;34.10;99.90
24148;DHT22;12309;51.450;-2.624;2022-07-17T13:52:07;33.20;99.90
24148;DHT22;12309;51.450;-2.624;2022-07-17T13:54:33;33.70;99.90
24148;DHT22;12309;51.450;-2.624;2022-07-17T13:56:58;34.30;99.90
24148;DHT22;12309;51.450;-2.624;2022-07-17T13:59:26;34.90;99.90
24148;DHT22;12309;51.450;-2.624;2022-07-17T14:01:52;34.40;99.90
24148;DHT22;12309;51.450;-2.624;2022-07-17T14:04:18;33.50;99.90
24148;DHT22;12309;51.450;-2.624;2022-07-17T14:06:44;33.80;99.90
24148;DHT22;12309;51.450;-2.624;2022-07-17T14:09:10;34.00;99.90
24148;DHT22;12309;51.450;-2.624;2022-07-17T14:11:36;33.70;99.90
24148;DHT22;12309;51.450;-2.624;2022-07-17T14:14:03;33.50;99.90
24148;DHT22;12309;51.450;-2.624;2022-07-17T14:16:28;33.90;99.90
24148;DHT22;12309;51.450;-2.624;2022-07-17T14:18:54;34.30;99.90
24148;DHT22;12309;51.450;-2.624;2022-07-17T14:21:32;34.30;99.90
24148;DHT22;12309;51.450;-2.624;2022-07-17T14:23:58;34.10;99.90
24148;DHT22;12309;51.450;-2.624;2022-07-17T14:26:24;34.40;99.90
24148;DHT22;12309;51.450;-2.624;2022-07-17T14:28:50;34.80;99.90
24148;DHT22;12309;51.450;-2.624;2022-07-17T14:31:16;35.30;99.90
24148;DHT22;12309;51.450;-2.624;2022-07-17T14:33:43;35.40;99.90
24148;DHT22;12309;51.450;-2.624;2022-07-17T14:36:10;34.80;99.90
24148;DHT22;12309;51.450;-2.624;2022-07-17T14:38:36;34.20;99.90
24148;DHT22;12309;51.450;-2.624;2022-07-17T14:41:02;34.70;99.90
24148;DHT22;12309;51.450;-2.624;2022-07-17T14:43:28;34.10;99.90
24148;DHT22;12309;51.450;-2.624;2022-07-17T14:45:55;33.90;99.90
24148;DHT22;12309;51.450;-2.624;2022-07-17T14:48:21;33.80;99.90
24148;DHT22;12309;51.450;-2.624;2022-07-17T14:50:47;34.00;99.90
24148;DHT22;12309;51.450;-2.624;2022-07-17T14:53:13;33.90;99.90
24148;DHT22;12309;51.450;-2.624;2022-07-17T14:55:39;33.70;99.90
24148;DHT22;12309;51.450;-2.624;2022-07-17T14:58:05;34.20;99.90
24148;DHT22;12309;51.450;-2.624;2022-07-17T15:00:31;33.50;98.80
24148;DHT22;12309;51.450;-2.624;2022-07-17T15:02:57;33.10;99.50
24148;DHT22;12309;51.450;-2.624;2022-07-17T15:05:23;33.50;99.40
24148;DHT22;12309;51.450;-2.624;2022-07-17T15:07:48;33.40;99.70
24148;DHT22;12309;51.450;-2.624;2022-07-17T15:10:14;33.30;98.90
24148;DHT22;12309;51.450;-2.624;2022-07-17T15:12:40;34.00;99.40
24148;DHT22;12309;51.450;-2.624;2022-07-17T15:15:06;34.30;97.70
24148;DHT22;12309;51.450;-2.624;2022-07-17T15:17:32;34.60;98.10
24148;DHT22;12309;51.450;-2.624;2022-07-17T15:19:58;34.40;98.40
24148;DHT22;12309;51.450;-2.624;2022-07-17T15:22:24;34.70;98.40
24148;DHT22;12309;51.450;-2.624;2022-07-17T15:24:50;35.10;98.20